createdAt,value
2018-11-04T00:02:16.691Z,8.04
2018-11-04T00:05:21.776Z,8.05
2018-11-04T00:08:26.784Z,8.06
2018-11-04T00:11:31.755Z,8.07
2018-11-04T00:14:36.742Z,8.08
2018-11-04T00:17:41.729Z,8.11
2018-11-04T00:20:46.721Z,8.07
2018-11-04T00:23:54.051Z,8.09
2018-11-04T00:27:00.677Z,8.07
2018-11-04T00:30:08.631Z,8.11
2018-11-04T00:33:13.642Z,8.14
2018-11-04T00:36:20.378Z,8.17
2018-11-04T00:39:27.211Z,8.17
2018-11-04T00:42:39.741Z,8.18
2018-11-04T00:45:46.720Z,8.16
2018-11-04T00:48:53.817Z,8.17
2018-11-04T00:52:00.542Z,8.19
2018-11-04T00:55:05.891Z,8.20
2018-11-04T00:58:10.961Z,8.23
2018-11-04T01:01:17.628Z,8.27
2018-11-04T01:04:22.655Z,8.28
2018-11-04T01:07:27.686Z,8.27
2018-11-04T01:10:34.371Z,8.29
2018-11-04T01:13:40.907Z,8.31
2018-11-04T01:16:46.130Z,8.34
2018-11-04T01:19:53.485Z,8.35
2018-11-04T01:23:00.671Z,8.37
2018-11-04T01:26:05.961Z,8.37
2018-11-04T01:29:12.703Z,8.38
2018-11-04T01:32:19.760Z,8.40
2018-11-04T01:35:26.360Z,8.40
2018-11-04T01:38:32.997Z,8.39
2018-11-04T01:41:38.369Z,8.38
2018-11-04T01:44:44.866Z,8.40
2018-11-04T01:47:49.891Z,8.41
2018-11-04T01:50:55.885Z,8.41
2018-11-04T01:54:00.882Z,8.43
2018-11-04T01:57:05.876Z,8.46
2018-11-04T02:00:14.220Z,8.46
2018-11-04T02:03:20.969Z,8.45
2018-11-04T02:06:27.826Z,8.46
2018-11-04T02:09:45.219Z,8.46
2018-11-04T02:12:51.705Z,8.44
2018-11-04T02:16:00.694Z,8.44
2018-11-04T02:19:07.693Z,8.43
2018-11-04T02:22:14.200Z,8.46
2018-11-04T02:25:19.205Z,8.46
2018-11-04T02:28:25.867Z,8.49
2018-11-04T02:31:30.883Z,8.50
2018-11-04T02:34:37.663Z,8.50
2018-11-04T02:37:44.476Z,8.49
2018-11-04T02:40:49.476Z,8.49
2018-11-04T02:43:56.038Z,8.51
2018-11-04T02:47:02.839Z,8.50
2018-11-04T02:50:08.549Z,8.51
2018-11-04T02:53:13.560Z,8.52
2018-11-04T02:56:18.549Z,8.54
2018-11-04T02:59:25.445Z,8.56
2018-11-04T03:02:30.447Z,8.56
2018-11-04T03:05:37.045Z,8.53
2018-11-04T03:08:42.068Z,8.56
2018-11-04T03:11:49.057Z,8.54
2018-11-04T03:14:54.045Z,8.53
2018-11-04T03:17:59.063Z,8.54
2018-11-04T03:21:05.909Z,8.57
2018-11-04T03:24:10.951Z,8.57
2018-11-04T03:27:18.101Z,8.59
2018-11-04T03:30:25.122Z,8.58
2018-11-04T03:33:30.156Z,8.60
2018-11-04T03:36:35.184Z,8.59
2018-11-04T03:39:42.299Z,8.58
2018-11-04T03:42:47.308Z,8.56
2018-11-04T03:45:52.287Z,8.56
2018-11-04T03:48:57.274Z,8.54
2018-11-04T03:52:02.288Z,8.55
2018-11-04T03:55:07.530Z,8.57
2018-11-04T03:58:12.504Z,8.58
2018-11-04T04:01:17.498Z,8.61
2018-11-04T04:04:22.474Z,8.61
2018-11-04T04:07:27.454Z,8.61
2018-11-04T04:10:32.423Z,8.62
2018-11-04T04:13:37.405Z,8.59
2018-11-04T04:16:42.379Z,8.62
2018-11-04T04:19:47.352Z,8.62
2018-11-04T04:22:54.334Z,8.61
2018-11-04T04:25:59.314Z,8.62
2018-11-04T04:29:05.852Z,8.61
2018-11-04T04:32:12.512Z,8.63
2018-11-04T04:35:19.088Z,8.63
2018-11-04T04:38:26.053Z,8.66
2018-11-04T04:41:31.018Z,8.66
2018-11-04T04:44:38.066Z,8.65
2018-11-04T04:47:43.051Z,8.64
2018-11-04T04:50:49.820Z,8.67
2018-11-04T04:53:56.606Z,8.68
2018-11-04T04:57:03.273Z,8.69
2018-11-04T05:00:08.317Z,8.69
2018-11-04T05:03:15.174Z,8.70
2018-11-04T05:06:21.997Z,8.71
2018-11-04T05:09:28.679Z,8.68
2018-11-04T05:15:10.580Z,8.57
2018-11-04T05:18:17.550Z,8.58
2018-11-04T05:21:24.626Z,8.60
2018-11-04T05:24:33.762Z,8.64
2018-11-04T05:27:40.418Z,8.66
2018-11-04T05:30:45.391Z,8.64
2018-11-04T05:33:52.053Z,8.68
2018-11-04T05:36:57.051Z,8.71
2018-11-04T05:40:02.168Z,8.72
2018-11-04T05:43:07.150Z,8.73
2018-11-04T05:46:12.138Z,8.75
2018-11-04T05:49:20.719Z,8.76
2018-11-04T05:52:25.684Z,8.76
2018-11-04T05:55:32.609Z,8.77
2018-11-04T05:58:40.905Z,8.79
2018-11-04T06:01:45.943Z,8.77
2018-11-04T06:04:52.454Z,8.77
2018-11-04T06:07:59.414Z,8.75
2018-11-04T06:11:04.661Z,8.74
2018-11-04T06:14:11.636Z,8.76
2018-11-04T06:17:18.636Z,8.79
2018-11-04T06:20:24.969Z,8.76
2018-11-04T06:23:29.993Z,8.78
2018-11-04T06:26:37.004Z,8.75
2018-11-04T06:29:44.025Z,8.76
2018-11-04T06:32:49.038Z,8.77
2018-11-04T06:35:55.584Z,8.81
2018-11-04T06:39:02.998Z,8.82
2018-11-04T06:42:07.985Z,8.84
2018-11-04T06:45:19.655Z,8.84
2018-11-04T06:48:26.428Z,8.86
2018-11-04T06:51:33.541Z,8.89
2018-11-04T06:54:40.310Z,8.88
2018-11-04T06:57:46.920Z,8.92
2018-11-04T07:00:53.538Z,8.95
2018-11-04T07:04:12.293Z,8.97
2018-11-04T07:07:19.351Z,8.97
2018-11-04T07:10:24.333Z,9.04
2018-11-04T07:13:30.863Z,9.10
2018-11-04T07:16:35.866Z,9.15
2018-11-04T07:19:40.923Z,9.19
2018-11-04T07:22:47.607Z,9.24
2018-11-04T07:25:52.633Z,9.24
2018-11-04T07:28:58.784Z,9.20
2018-11-04T07:32:06.094Z,9.29
2018-11-04T07:35:11.082Z,9.36
2018-11-04T07:38:16.090Z,9.41
2018-11-04T07:41:22.971Z,9.46
2018-11-04T07:44:28.177Z,9.51
2018-11-04T07:47:33.117Z,9.57
2018-11-04T07:50:39.996Z,9.62
2018-11-04T07:53:50.573Z,9.68
2018-11-04T07:56:57.277Z,9.72
2018-11-04T08:00:02.334Z,9.78
2018-11-04T08:03:07.449Z,9.80
2018-11-04T08:06:14.351Z,9.85
2018-11-04T08:09:21.262Z,9.89
2018-11-04T08:12:27.890Z,9.94
2018-11-04T08:15:34.746Z,9.98
2018-11-04T08:18:39.813Z,9.99
2018-11-04T08:21:46.791Z,9.99
2018-11-04T08:24:51.864Z,10.02
2018-11-04T08:27:56.909Z,10.12
2018-11-04T08:31:01.978Z,10.18
2018-11-04T08:34:08.778Z,10.20
2018-11-04T08:37:13.818Z,10.21
2018-11-04T08:40:19.008Z,10.24
2018-11-04T08:43:23.940Z,10.17
2018-11-04T08:46:28.978Z,10.24
2018-11-04T08:49:35.865Z,10.25
2018-11-04T08:52:41.004Z,10.37
2018-11-04T08:55:47.035Z,10.43
2018-11-04T08:58:53.703Z,10.48
2018-11-04T09:01:58.719Z,10.46
2018-11-04T09:05:04.245Z,10.57
2018-11-04T09:08:09.248Z,10.64
2018-11-04T09:11:14.213Z,10.72
2018-11-04T09:14:19.599Z,10.90
2018-11-04T09:17:24.622Z,11.00
2018-11-04T09:20:31.418Z,11.00
2018-11-04T09:23:38.030Z,11.11
2018-11-04T09:26:43.021Z,11.24
2018-11-04T09:29:50.067Z,11.34
2018-11-04T09:32:56.786Z,11.44
2018-11-04T09:36:04.991Z,11.50
2018-11-04T09:39:11.018Z,11.50
2018-11-04T09:42:17.945Z,11.55
2018-11-04T09:45:30.844Z,11.53
2018-11-04T09:48:35.957Z,11.69
2018-11-04T09:51:40.995Z,11.79
2018-11-04T09:54:46.185Z,11.80
2018-11-04T09:58:00.873Z,11.84
2018-11-04T10:01:20.049Z,11.78
2018-11-04T10:04:28.193Z,11.78
2018-11-04T10:07:35.297Z,11.76
2018-11-04T10:10:51.227Z,11.76
2018-11-04T10:14:00.592Z,11.76
2018-11-04T10:20:49.458Z,11.89
2018-11-04T10:23:55.875Z,12.00
2018-11-04T10:27:03.358Z,12.03
2018-11-04T10:30:14.114Z,11.99
2018-11-04T10:33:20.720Z,12.07
2018-11-04T10:36:27.718Z,12.06
2018-11-04T10:39:32.893Z,12.18
2018-11-04T10:42:39.537Z,12.33
2018-11-04T10:45:46.363Z,12.39
2018-11-04T10:48:52.672Z,12.39
2018-11-04T10:52:01.916Z,12.35
2018-11-04T10:55:08.331Z,12.40
2018-11-04T10:58:15.424Z,12.49
2018-11-04T11:01:22.202Z,12.55
2018-11-04T11:04:29.539Z,12.60
2018-11-04T11:07:34.611Z,12.63
2018-11-04T11:10:39.754Z,12.70
2018-11-04T11:13:47.517Z,12.75
2018-11-04T11:16:52.714Z,12.89
2018-11-04T11:20:04.940Z,12.91
2018-11-04T11:23:13.715Z,12.93
2018-11-04T11:26:18.683Z,13.08
2018-11-04T11:29:25.789Z,13.14
2018-11-04T11:32:33.945Z,13.23
2018-11-04T11:35:38.987Z,13.30
2018-11-04T11:38:44.020Z,13.37
2018-11-04T11:41:49.094Z,13.27
2018-11-04T11:44:54.194Z,13.19
2018-11-04T11:47:59.205Z,13.30
2018-11-04T11:51:06.086Z,13.39
2018-11-04T11:54:11.124Z,13.47
2018-11-04T11:57:19.395Z,13.50
2018-11-04T12:00:26.410Z,13.52
2018-11-04T12:03:37.145Z,13.26
2018-11-04T12:06:42.307Z,13.18
2018-11-04T12:09:50.910Z,13.12
2018-11-04T12:15:04.513Z,12.98
2018-11-04T12:18:11.161Z,13.02
2018-11-04T12:21:16.170Z,13.06
2018-11-04T12:24:22.954Z,13.01
2018-11-04T12:27:30.139Z,12.99
2018-11-04T12:30:35.151Z,12.93
2018-11-04T12:33:40.167Z,12.94
2018-11-04T12:36:45.870Z,12.97
2018-11-04T12:39:51.011Z,12.93
2018-11-04T12:42:56.066Z,12.88
2018-11-04T12:46:01.098Z,12.88
2018-11-04T12:49:06.486Z,12.90
2018-11-04T12:52:13.656Z,12.90
2018-11-04T12:55:18.672Z,12.60
2018-11-04T12:58:23.752Z,12.61
2018-11-04T13:01:28.766Z,12.53
2018-11-04T13:04:33.778Z,12.55
2018-11-04T13:07:41.670Z,12.64
2018-11-04T13:10:48.329Z,12.57
2018-11-04T13:13:53.358Z,12.50
2018-11-04T13:16:58.379Z,12.51
2018-11-04T13:20:03.463Z,12.47
2018-11-04T13:23:10.353Z,12.50
2018-11-04T13:26:15.361Z,12.61
2018-11-04T13:29:20.366Z,12.73
2018-11-04T13:32:25.392Z,12.77
2018-11-04T13:35:30.406Z,12.74
2018-11-04T13:38:37.282Z,12.56
2018-11-04T13:41:46.265Z,12.52
2018-11-04T13:44:53.264Z,12.48
2018-11-04T13:47:58.277Z,12.48
2018-11-04T13:51:03.353Z,12.43
2018-11-04T13:54:09.950Z,12.51
2018-11-04T13:57:16.709Z,12.45
2018-11-04T14:00:21.745Z,12.37
2018-11-04T14:03:26.810Z,12.46
2018-11-04T14:06:35.961Z,12.58
2018-11-04T14:09:43.165Z,12.62
2018-11-04T14:12:49.937Z,12.66
2018-11-04T14:15:56.467Z,12.57
2018-11-04T14:19:03.158Z,12.60
2018-11-04T14:22:10.210Z,12.66
2018-11-04T14:25:16.261Z,12.69
2018-11-04T14:28:21.322Z,12.75
2018-11-04T14:31:28.330Z,12.74
2018-11-04T14:34:33.365Z,12.72
2018-11-04T14:37:41.305Z,12.81
2018-11-04T14:40:46.363Z,12.45
2018-11-04T14:43:51.391Z,12.36
2018-11-04T14:46:56.444Z,12.43
2018-11-04T14:50:01.798Z,12.42
2018-11-04T14:53:06.919Z,12.40
2018-11-04T14:56:13.724Z,12.45
2018-11-04T14:59:20.478Z,12.43
2018-11-04T15:02:27.282Z,12.49
2018-11-04T15:08:38.701Z,12.47
2018-11-04T15:11:51.601Z,12.37
2018-11-04T15:14:58.334Z,12.32
2018-11-04T15:18:03.457Z,12.25
2018-11-04T15:21:08.548Z,12.24
2018-11-04T15:24:15.698Z,12.23
2018-11-04T15:27:20.706Z,12.26
2018-11-04T15:30:26.015Z,12.33
2018-11-04T15:33:31.075Z,12.20
2018-11-04T15:36:38.023Z,12.14
2018-11-04T15:39:45.037Z,12.00
2018-11-04T15:42:50.221Z,11.91
2018-11-04T15:45:57.361Z,11.88
2018-11-04T15:49:06.422Z,11.84
2018-11-04T15:52:11.453Z,11.86
2018-11-04T15:55:18.154Z,11.80
2018-11-04T15:58:25.138Z,11.75
2018-11-04T16:01:32.172Z,11.79
2018-11-04T16:04:44.545Z,11.85
2018-11-04T16:07:44.076Z,11.87
2018-11-04T16:10:52.806Z,11.81
2018-11-04T16:14:00.636Z,11.76
2018-11-04T16:17:05.780Z,11.71
2018-11-04T16:20:12.300Z,11.71
2018-11-04T16:23:19.390Z,11.70
2018-11-04T16:26:24.446Z,11.64
2018-11-04T16:29:29.532Z,11.57
2018-11-04T16:32:35.238Z,11.66
2018-11-04T16:35:41.963Z,11.67
2018-11-04T16:38:49.146Z,11.61
2018-11-04T16:41:56.173Z,11.44
2018-11-04T16:45:01.286Z,11.51
2018-11-04T16:48:06.343Z,11.65
2018-11-04T16:51:13.466Z,11.65
2018-11-04T16:54:18.478Z,11.58
2018-11-04T16:57:25.398Z,11.59
2018-11-04T17:00:30.449Z,11.58
2018-11-04T17:03:35.470Z,11.57
2018-11-04T17:06:40.581Z,11.58
2018-11-04T17:09:45.683Z,11.58
2018-11-04T17:12:50.866Z,11.57
2018-11-04T17:15:55.965Z,11.63
2018-11-04T17:19:00.986Z,11.66
2018-11-04T17:25:39.023Z,11.73
2018-11-04T17:28:45.869Z,11.71
2018-11-04T17:31:50.945Z,11.73
2018-11-04T17:34:58.227Z,11.74
2018-11-04T17:38:05.430Z,11.73
2018-11-04T17:41:10.475Z,11.72
2018-11-04T17:44:17.703Z,11.59
2018-11-04T17:47:22.907Z,11.58
2018-11-04T17:50:28.006Z,11.67
2018-11-04T17:53:35.030Z,11.61
2018-11-04T17:56:40.089Z,11.68
2018-11-04T17:59:46.456Z,11.68
2018-11-04T18:02:51.486Z,11.64
2018-11-04T18:05:57.714Z,11.62
2018-11-04T18:09:03.269Z,11.62
2018-11-04T18:12:08.352Z,11.52
2018-11-04T18:15:14.104Z,11.51
2018-11-04T18:18:19.118Z,11.42
2018-11-04T18:21:27.675Z,11.40
2018-11-04T18:24:34.630Z,11.42
2018-11-04T18:27:39.734Z,11.54
2018-11-04T18:30:46.608Z,11.59
2018-11-04T18:33:55.392Z,11.64
2018-11-04T18:37:02.083Z,11.66
2018-11-04T18:40:11.764Z,11.67
2018-11-04T18:43:18.573Z,11.58
2018-11-04T18:46:25.484Z,11.61
2018-11-04T18:49:32.394Z,11.57
2018-11-04T18:52:39.267Z,11.44
2018-11-04T18:55:44.270Z,11.42
2018-11-04T18:58:51.131Z,11.42
2018-11-04T19:01:57.785Z,11.46
2018-11-04T19:05:02.948Z,11.46
2018-11-04T19:08:08.139Z,11.37
2018-11-04T19:11:15.326Z,11.41
2018-11-04T19:14:22.177Z,11.46
2018-11-04T19:17:27.296Z,11.53
2018-11-04T19:20:34.577Z,11.49
2018-11-04T19:23:39.660Z,11.52
2018-11-04T19:26:45.016Z,11.54
2018-11-04T19:29:51.651Z,11.46
2018-11-04T19:32:58.330Z,11.50
2018-11-04T19:36:04.735Z,11.41
2018-11-04T19:39:11.012Z,11.44
2018-11-04T19:42:18.097Z,11.35
2018-11-04T19:45:24.806Z,11.43
2018-11-04T19:48:29.906Z,11.48
2018-11-04T19:51:35.074Z,11.50
2018-11-04T19:54:41.699Z,11.51
2018-11-04T19:57:46.776Z,11.43
2018-11-04T20:00:53.477Z,11.46
2018-11-04T20:04:00.219Z,11.44
2018-11-04T20:07:05.410Z,11.33
2018-11-04T20:10:15.248Z,11.43
2018-11-04T20:23:53.691Z,11.27
2018-11-04T20:26:58.777Z,11.21
2018-11-04T20:30:04.702Z,11.20
2018-11-04T20:33:11.394Z,11.20
2018-11-04T20:36:18.121Z,11.23
2018-11-04T20:39:28.902Z,11.28
2018-11-04T20:42:33.966Z,11.28
2018-11-04T20:45:38.954Z,11.26
2018-11-04T20:48:51.766Z,11.15
2018-11-04T20:51:58.464Z,11.14
2018-11-04T20:55:03.632Z,11.16
2018-11-04T20:58:08.890Z,11.27
2018-11-04T21:01:15.722Z,11.25
2018-11-04T21:04:22.047Z,11.15
2018-11-04T21:07:27.248Z,11.14
2018-11-04T21:10:33.962Z,11.15
2018-11-04T21:15:08.610Z,11.12
2018-11-04T21:18:14.656Z,11.09
2018-11-04T21:21:21.347Z,11.10
2018-11-04T21:24:26.323Z,11.07
2018-11-04T21:27:31.356Z,11.16
2018-11-04T21:30:38.209Z,11.09
2018-11-04T21:33:44.933Z,11.13
2018-11-04T21:36:53.741Z,11.05
2018-11-04T21:40:01.032Z,11.11
2018-11-04T21:43:08.163Z,11.15
2018-11-04T21:46:14.983Z,11.23
2018-11-04T21:49:22.009Z,11.21
2018-11-04T21:52:27.058Z,11.24
2018-11-04T21:55:33.387Z,11.14
2018-11-04T21:58:40.102Z,11.10
2018-11-04T22:01:45.153Z,11.04
2018-11-04T22:04:50.216Z,11.08
2018-11-04T22:07:55.180Z,11.10
2018-11-04T22:11:02.054Z,11.13
2018-11-04T22:14:08.675Z,11.15
2018-11-04T22:17:17.759Z,11.18
2018-11-04T22:20:24.510Z,11.20
2018-11-04T22:23:31.178Z,11.11
2018-11-04T22:26:36.154Z,10.96
2018-11-04T22:29:41.189Z,11.05
2018-11-04T22:32:49.499Z,11.10
2018-11-04T22:35:56.126Z,11.16
2018-11-04T22:39:01.136Z,10.99
2018-11-04T22:42:07.807Z,11.16
2018-11-04T22:45:12.871Z,11.18
2018-11-04T22:48:19.819Z,11.23
2018-11-04T22:51:28.042Z,11.29
2018-11-04T22:54:34.653Z,11.16
2018-11-04T22:57:43.741Z,11.24
2018-11-04T23:03:54.371Z,11.18
2018-11-04T23:07:01.275Z,11.21
2018-11-04T23:10:08.395Z,11.26
2018-11-04T23:13:15.358Z,11.30
2018-11-04T23:16:20.416Z,11.33
2018-11-04T23:19:25.534Z,11.30
2018-11-04T23:22:35.201Z,11.32
2018-11-04T23:25:41.563Z,11.33
2018-11-04T23:28:48.318Z,11.32
2018-11-04T23:31:55.130Z,11.16
2018-11-04T23:35:00.310Z,11.14
2018-11-04T23:38:06.966Z,11.17
2018-11-04T23:41:12.056Z,11.10
2018-11-04T23:44:17.233Z,11.06
2018-11-04T23:47:24.322Z,11.09
2018-11-04T23:50:32.922Z,11.03
2018-11-04T23:53:52.743Z,11.01
2018-11-04T23:56:59.414Z,11.02
